This is the latest recevied weather packets stored in our database for station/object EA1PVC-10. If no packets are shown the sender has not sent any weather packets the latest 10 day(s).
| Time | Temp. | Humidity | Pressure | Rain* | Wind** | Luminosity | Snow |
|---|---|---|---|---|---|---|---|
| 1777816752 | 18.89° C | 42% | 919 hPa | - | - | - | - |
| 1777815852 | 18.89° C | 41% | 919.1 hPa | - | - | - | - |
| 1777814952 | 18.89° C | 44% | 919 hPa | - | - | - | - |
| 1777814052 | 19.44° C | 40% | 919.1 hPa | - | - | - | - |
| 1777812252 | 19.44° C | 42% | 919.2 hPa | - | - | - | - |
| 1777811352 | 18.33° C | 45% | 919.2 hPa | - | - | - | - |
| 1777810452 | 19.44° C | 41% | 919.5 hPa | - | - | - | - |
| 1777809552 | 18.89° C | 48% | 919.5 hPa | - | - | - | - |
| 1777808652 | 17.22° C | 55% | 919.7 hPa | - | - | - | - |
| 1777807752 | 12.22° C | 58% | 913.2 hPa | - | - | - | - |
| 1777806840 | 16.11° C | 59% | 920 hPa | - | - | - | - |
| 1777805940 | 16.67° C | 60% | 920 hPa | - | - | - | - |
| 1777805040 | 16.11° C | 68% | 920.1 hPa | - | - | - | - |
| 1777804141 | 15° C | 68% | 920.2 hPa | - | - | - | - |
| 1777802340 | 15° C | 69% | 920 hPa | - | - | - | - |
| 1777801440 | 15° C | 69% | 920.1 hPa | - | - | - | - |
| 1777800540 | 15° C | 73% | 920.2 hPa | - | - | - | - |
| 1777799640 | 15° C | 74% | 920.2 hPa | - | - | - | - |
| 1777798740 | 15.56° C | 72% | 920.2 hPa | - | - | - | - |
| 1777797840 | 15° C | 77% | 920.3 hPa | - | - | - | - |
| 1777796028 | 14.44° C | 86% | 920.3 hPa | - | - | - | - |
| 1777795128 | 13.89° C | 87% | 920.2 hPa | - | - | - | - |
| 1777794228 | 13.33° C | 93% | 920.2 hPa | - | - | - | - |
| 1777793328 | 12.78° C | 94% | 920.2 hPa | - | - | - | - |
| 1777792428 | 12.78° C | 95% | 920.2 hPa | - | - | - | - |
* Rain since midnight (hover to see other rain measurements)
** Current wind speed in m/s (hover to see current wind gust speed)